createdAt,value
2022-12-09T00:01:28.353Z,51.92
2022-12-09T00:03:58.151Z,48.67
2022-12-09T00:06:30.940Z,52.92
2022-12-09T00:09:00.299Z,62.53
2022-12-09T00:11:30.834Z,52.63
2022-12-09T00:14:03.205Z,54.28
2022-12-09T00:16:32.872Z,49.38
2022-12-09T00:19:02.028Z,50.17
2022-12-09T00:21:33.737Z,56.63
2022-12-09T00:24:05.829Z,49.17
2022-12-09T00:26:38.483Z,53.15
2022-12-09T00:29:07.336Z,45.47
2022-12-09T00:31:39.448Z,45.33
2022-12-09T00:34:12.661Z,47.80
2022-12-09T00:36:41.550Z,44.97
2022-12-09T00:39:13.280Z,45.75
2022-12-09T00:41:44.122Z,40.90
2022-12-09T00:44:14.318Z,49.22
2022-12-09T00:46:43.554Z,49.35
2022-12-09T00:49:12.721Z,44.15
2022-12-09T00:51:41.345Z,33.40
2022-12-09T00:54:10.252Z,31.23
2022-12-09T00:56:39.292Z,26.40
2022-12-09T00:59:09.484Z,30.20
2022-12-09T01:01:39.823Z,28.48
2022-12-09T01:04:11.110Z,30.40
2022-12-09T01:06:40.464Z,29.70
2022-12-09T01:09:09.246Z,28.17
2022-12-09T01:11:38.573Z,29.38
2022-12-09T01:14:09.725Z,28.10
2022-12-09T01:16:39.135Z,33.08
2022-12-09T01:19:12.433Z,29.88
2022-12-09T01:21:41.921Z,30.65
2022-12-09T01:24:14.211Z,29.45
2022-12-09T01:26:43.644Z,32.50
2022-12-09T01:29:14.270Z,36.67
2022-12-09T01:31:43.676Z,35.83
2022-12-09T01:34:13.359Z,33.28
2022-12-09T01:36:44.080Z,35.13
2022-12-09T01:39:12.572Z,34.97
2022-12-09T01:41:42.599Z,38.88
2022-12-09T01:44:22.024Z,39.05
2022-12-09T01:46:57.501Z,38.95
2022-12-09T01:49:31.415Z,41.88
2022-12-09T01:52:06.983Z,43.05
2022-12-09T01:54:36.031Z,39.55
2022-12-09T01:57:05.979Z,41.28
2022-12-09T01:59:36.740Z,42.85
2022-12-09T02:02:09.320Z,42.42
2022-12-09T02:04:42.671Z,46.42
2022-12-09T02:07:13.387Z,44.13
2022-12-09T02:09:45.520Z,44.25
2022-12-09T02:12:17.033Z,44.28
2022-12-09T02:14:56.099Z,42.80
2022-12-09T02:17:36.355Z,42.80
2022-12-09T02:20:17.369Z,48.97
2022-12-09T02:22:53.760Z,45.83
2022-12-09T02:25:33.819Z,44.35
2022-12-09T02:28:46.694Z,44.95
2022-12-09T02:31:31.224Z,42.33
2022-12-09T02:34:16.217Z,42.03
2022-12-09T02:36:56.151Z,47.55
2022-12-09T02:39:32.529Z,45.83
2022-12-09T02:42:06.151Z,47.45
2022-12-09T02:44:39.476Z,47.75
2022-12-09T02:47:11.072Z,54.72
2022-12-09T02:49:44.283Z,47.35
2022-12-09T02:52:16.224Z,51.53
2022-12-09T02:54:46.263Z,54.20
2022-12-09T02:57:19.417Z,52.10
2022-12-09T02:59:48.354Z,50.75
2022-12-09T03:02:28.457Z,54.20
2022-12-09T03:05:13.530Z,57.67
2022-12-09T03:07:53.295Z,54.50
2022-12-09T03:10:29.799Z,54.08
2022-12-09T03:13:05.102Z,51.05
2022-12-09T03:15:37.214Z,59.03
2022-12-09T03:18:15.387Z,62.28
2022-12-09T03:20:49.267Z,53.65
2022-12-09T03:23:25.089Z,57.78
2022-12-09T03:25:56.171Z,56.63
2022-12-09T03:28:31.976Z,65.18
2022-12-09T03:31:06.174Z,60.58
2022-12-09T03:33:36.483Z,57.93
2022-12-09T03:36:14.253Z,55.55
2022-12-09T03:38:47.310Z,57.60
2022-12-09T03:41:24.227Z,57.78
2022-12-09T03:43:57.521Z,54.78
2022-12-09T03:46:29.878Z,65.75
2022-12-09T03:49:01.741Z,62.25
2022-12-09T03:51:37.563Z,56.25
2022-12-09T03:54:16.317Z,62.97
2022-12-09T03:56:51.379Z,59.95
2022-12-09T04:01:50.210Z,57.05
2022-12-09T04:04:19.251Z,61.92
2022-12-09T04:06:52.316Z,66.43
2022-12-09T04:09:21.068Z,63.60
2022-12-09T04:11:50.275Z,59.88
2022-12-09T04:14:19.338Z,65.43
2022-12-09T04:16:48.363Z,66.68
2022-12-09T04:19:17.284Z,66.88
2022-12-09T04:21:46.044Z,63.78
2022-12-09T04:24:17.395Z,68.97
2022-12-09T04:26:46.931Z,66.25
2022-12-09T04:29:18.312Z,64.47
2022-12-09T04:31:47.205Z,63.75
2022-12-09T04:34:15.773Z,64.68
2022-12-09T04:36:44.954Z,64.18
2022-12-09T04:39:15.215Z,69.28
2022-12-09T04:41:44.631Z,61.00
2022-12-09T04:44:14.741Z,63.40
2022-12-09T04:46:43.421Z,59.38
2022-12-09T04:49:12.049Z,64.40
2022-12-09T04:51:41.580Z,60.25
2022-12-09T04:54:18.047Z,62.35
2022-12-09T04:56:47.486Z,66.78
2022-12-09T04:59:16.791Z,63.08
2022-12-09T05:01:45.757Z,52.25
2022-12-09T05:04:15.586Z,60.55
2022-12-09T05:06:44.904Z,63.75
2022-12-09T05:09:15.289Z,62.00
2022-12-09T05:11:47.919Z,60.20
2022-12-09T05:14:16.997Z,55.75
2022-12-09T05:16:47.604Z,63.80
2022-12-09T05:19:17.191Z,65.93
2022-12-09T05:21:46.379Z,63.20
2022-12-09T05:24:15.572Z,59.25
2022-12-09T05:26:48.499Z,56.35
2022-12-09T05:29:22.521Z,56.55
2022-12-09T05:31:53.323Z,69.50
2022-12-09T05:34:23.512Z,71.82
2022-12-09T05:36:53.698Z,68.80
2022-12-09T05:39:22.766Z,66.80
2022-12-09T05:41:56.526Z,71.50
2022-12-09T05:44:26.790Z,63.58
2022-12-09T05:46:55.663Z,58.00
2022-12-09T05:49:25.495Z,64.30
2022-12-09T05:51:55.978Z,54.70
2022-12-09T05:54:25.958Z,58.10
2022-12-09T05:56:57.462Z,63.67
2022-12-09T05:59:27.105Z,54.70
2022-12-09T06:01:57.393Z,60.40
2022-12-09T06:04:28.081Z,74.85
2022-12-09T06:06:58.012Z,60.75
2022-12-09T06:09:28.547Z,57.03
2022-12-09T06:11:59.956Z,60.53
2022-12-09T06:14:29.180Z,57.40
2022-12-09T06:16:58.753Z,59.92
2022-12-09T06:19:28.324Z,62.92
2022-12-09T06:21:57.851Z,54.60
2022-12-09T06:24:26.944Z,66.55
2022-12-09T06:26:58.491Z,57.25
2022-12-09T06:29:27.609Z,52.63
2022-12-09T06:31:57.679Z,63.25
2022-12-09T06:34:29.205Z,54.22
2022-12-09T06:37:00.959Z,62.75
2022-12-09T06:39:30.872Z,65.13
2022-12-09T06:42:02.484Z,64.88
2022-12-09T06:44:31.996Z,59.90
2022-12-09T06:47:01.031Z,61.53
2022-12-09T06:49:30.780Z,60.42
2022-12-09T06:52:01.777Z,49.17
2022-12-09T06:54:32.821Z,65.28
2022-12-09T06:57:49.219Z,57.17
2022-12-09T07:00:19.018Z,60.72
2022-12-09T07:02:50.394Z,70.90
2022-12-09T07:05:21.612Z,61.58
2022-12-09T07:07:53.055Z,69.72
2022-12-09T07:10:23.801Z,64.35
2022-12-09T07:12:55.449Z,71.45
2022-12-09T07:15:25.860Z,64.90
2022-12-09T07:17:56.315Z,63.92
2022-12-09T07:20:26.767Z,59.53
2022-12-09T07:22:56.267Z,79.07
2022-12-09T07:25:25.653Z,105.90
2022-12-09T07:27:56.431Z,131.48
2022-12-09T07:30:27.191Z,133.60
2022-12-09T07:32:56.209Z,101.35
2022-12-09T07:35:28.355Z,98.00
2022-12-09T07:37:58.666Z,97.72
2022-12-09T07:40:28.073Z,91.75
2022-12-09T07:42:59.882Z,125.53
2022-12-09T07:45:29.417Z,213.45
2022-12-09T07:47:58.433Z,135.68
2022-12-09T07:50:27.536Z,142.55
2022-12-09T07:52:57.296Z,137.07
2022-12-09T07:55:26.274Z,238.50
2022-12-09T07:57:55.144Z,200.20
2022-12-09T08:00:27.168Z,128.20
2022-12-09T08:02:57.861Z,111.80
2022-12-09T08:05:30.242Z,103.75
2022-12-09T08:08:00.961Z,102.28
2022-12-09T08:10:30.922Z,113.00
2022-12-09T08:13:03.118Z,101.45
2022-12-09T08:15:35.879Z,93.32
2022-12-09T08:18:05.479Z,94.10
2022-12-09T08:20:34.489Z,98.30
2022-12-09T08:23:03.563Z,95.38
2022-12-09T08:25:32.275Z,89.90
2022-12-09T08:28:01.510Z,93.75
2022-12-09T08:30:33.323Z,92.95
2022-12-09T08:33:03.534Z,91.30
2022-12-09T08:35:32.557Z,88.38
2022-12-09T08:38:01.656Z,104.70
2022-12-09T08:40:31.723Z,90.93
2022-12-09T08:43:01.792Z,94.85
2022-12-09T08:45:31.489Z,97.80
2022-12-09T08:48:02.960Z,80.25
2022-12-09T08:50:32.327Z,91.28
2022-12-09T08:53:01.760Z,93.30
2022-12-09T08:55:31.210Z,88.88
2022-12-09T08:58:00.084Z,85.50
2022-12-09T09:00:29.092Z,87.30
2022-12-09T09:02:58.563Z,86.82
2022-12-09T09:05:30.070Z,94.15
2022-12-09T09:07:59.514Z,89.95
2022-12-09T09:10:29.755Z,82.22
2022-12-09T09:12:59.711Z,89.80
2022-12-09T09:15:29.091Z,98.32
2022-12-09T09:17:58.252Z,96.97
2022-12-09T09:20:29.551Z,96.82
2022-12-09T09:23:03.128Z,87.95
2022-12-09T09:25:33.157Z,99.97
2022-12-09T09:28:02.296Z,96.40
2022-12-09T09:30:31.492Z,100.85
2022-12-09T09:33:00.120Z,111.63
2022-12-09T09:35:31.704Z,111.10
2022-12-09T09:38:00.662Z,107.53
2022-12-09T09:40:31.915Z,108.32
2022-12-09T09:43:03.494Z,114.13
2022-12-09T09:45:32.644Z,115.20
2022-12-09T09:48:05.621Z,117.72
2022-12-09T09:50:44.574Z,113.65
2022-12-09T09:53:26.066Z,118.82
2022-12-09T09:56:01.469Z,123.35
2022-12-09T09:58:44.228Z,125.25
2022-12-09T10:01:17.800Z,141.45
2022-12-09T10:04:00.795Z,119.60
2022-12-09T10:06:45.741Z,121.93
2022-12-09T10:09:21.865Z,126.70
2022-12-09T10:12:03.188Z,123.53
2022-12-09T10:14:46.156Z,129.52
2022-12-09T10:17:27.959Z,127.40
2022-12-09T10:20:06.475Z,139.43
2022-12-09T10:22:44.836Z,136.13
2022-12-09T10:25:22.871Z,166.85
2022-12-09T10:28:01.622Z,167.90
2022-12-09T10:30:37.274Z,166.63
2022-12-09T10:33:11.896Z,264.67
2022-12-09T10:35:44.270Z,200.10
2022-12-09T10:38:17.601Z,162.38
2022-12-09T10:41:01.272Z,162.60
2022-12-09T10:43:38.980Z,142.70
2022-12-09T10:46:18.755Z,136.43
2022-12-09T10:48:56.431Z,147.77
2022-12-09T10:51:30.186Z,148.23
2022-12-09T10:54:04.473Z,133.20
2022-12-09T10:56:37.066Z,128.90
2022-12-09T10:59:19.749Z,133.32
2022-12-09T11:01:55.717Z,135.40
2022-12-09T11:04:27.289Z,135.30
2022-12-09T11:07:01.139Z,126.63
2022-12-09T11:09:34.955Z,130.73
2022-12-09T11:12:08.748Z,124.20
2022-12-09T11:14:41.362Z,131.02
2022-12-09T11:17:17.823Z,117.18
2022-12-09T11:19:52.531Z,126.80
2022-12-09T11:22:40.269Z,120.00
2022-12-09T11:25:34.516Z,118.60
2022-12-09T11:28:06.725Z,107.85
2022-12-09T11:31:04.745Z,115.13
2022-12-09T11:33:36.716Z,112.47
2022-12-09T11:36:10.754Z,111.97
2022-12-09T11:38:43.027Z,106.43
2022-12-09T11:41:36.334Z,99.18
2022-12-09T11:44:24.615Z,106.97
2022-12-09T11:47:01.564Z,106.25
2022-12-09T11:49:33.872Z,101.38
2022-12-09T11:52:39.101Z,92.32
2022-12-09T11:55:20.251Z,100.45
2022-12-09T11:57:56.679Z,91.43
2022-12-09T12:00:29.161Z,91.97
2022-12-09T12:03:08.254Z,92.95
2022-12-09T12:05:42.224Z,86.13
2022-12-09T12:08:22.271Z,91.20
2022-12-09T12:10:58.351Z,91.07
2022-12-09T12:13:38.482Z,95.13
2022-12-09T12:16:13.009Z,86.32
2022-12-09T12:19:00.427Z,88.90
2022-12-09T12:21:45.775Z,95.68
2022-12-09T12:24:56.184Z,92.72
2022-12-09T12:27:45.471Z,97.25
2022-12-09T12:30:20.309Z,91.57
2022-12-09T12:36:24.263Z,90.10
2022-12-09T12:39:06.226Z,80.03
2022-12-09T12:41:51.966Z,87.68
2022-12-09T12:45:08.596Z,91.28
2022-12-09T12:47:47.920Z,85.20
2022-12-09T12:50:52.906Z,81.78
2022-12-09T12:53:37.844Z,79.38
2022-12-09T12:56:13.511Z,82.18
2022-12-09T12:59:01.410Z,75.18
2022-12-09T13:01:35.905Z,79.57
2022-12-09T13:04:22.429Z,76.25
2022-12-09T13:06:58.966Z,77.18
2022-12-09T13:09:37.885Z,77.05
2022-12-09T13:12:16.193Z,85.65
2022-12-09T13:14:57.382Z,76.57
2022-12-09T13:17:31.356Z,83.75
2022-12-09T13:20:06.278Z,65.40
2022-12-09T13:22:46.911Z,76.20
2022-12-09T13:25:30.692Z,68.57
2022-12-09T13:28:08.159Z,79.72
2022-12-09T13:30:51.070Z,78.15
2022-12-09T13:33:46.204Z,74.60
2022-12-09T13:36:23.625Z,74.95
2022-12-09T13:38:52.850Z,77.93
2022-12-09T13:42:03.838Z,79.43
2022-12-09T13:44:38.716Z,75.03
2022-12-09T13:47:34.542Z,76.30
2022-12-09T13:50:06.836Z,72.57
2022-12-09T13:52:52.473Z,72.65
2022-12-09T13:55:50.639Z,75.65
2022-12-09T13:58:59.866Z,69.25
2022-12-09T14:01:37.001Z,71.72
2022-12-09T14:04:15.086Z,68.28
2022-12-09T14:07:01.139Z,70.13
2022-12-09T14:09:43.184Z,70.65
2022-12-09T14:12:14.672Z,71.25
2022-12-09T14:14:53.202Z,67.25
2022-12-09T14:18:04.569Z,68.88
2022-12-09T14:20:41.112Z,67.50
2022-12-09T14:23:18.144Z,68.95
2022-12-09T14:26:06.279Z,72.20
2022-12-09T14:28:56.110Z,64.30
2022-12-09T14:32:02.728Z,67.68
2022-12-09T14:34:50.170Z,70.65
2022-12-09T14:38:02.652Z,67.00
2022-12-09T14:40:54.037Z,67.68
2022-12-09T14:43:55.830Z,70.75
2022-12-09T14:46:33.431Z,66.00
2022-12-09T14:49:12.181Z,72.60
2022-12-09T14:51:47.069Z,74.90
2022-12-09T14:54:22.024Z,72.75
2022-12-09T14:56:55.576Z,75.65
2022-12-09T14:59:28.486Z,76.40
2022-12-09T15:02:00.977Z,69.78
2022-12-09T15:04:36.733Z,72.25
2022-12-09T15:07:15.400Z,63.80
2022-12-09T15:09:53.709Z,75.22
2022-12-09T15:12:31.575Z,76.63
2022-12-09T15:15:11.333Z,74.35
2022-12-09T15:17:45.454Z,77.38
2022-12-09T15:20:29.104Z,75.72
2022-12-09T15:23:04.498Z,75.30
2022-12-09T15:25:35.652Z,88.35
2022-12-09T15:28:15.070Z,83.55
2022-12-09T15:30:47.024Z,79.07
2022-12-09T15:33:20.586Z,83.75
2022-12-09T15:35:57.198Z,77.20
2022-12-09T15:38:28.644Z,77.15
2022-12-09T15:41:18.684Z,75.38
2022-12-09T15:43:55.079Z,76.18
2022-12-09T15:46:35.777Z,87.63
2022-12-09T15:49:05.741Z,79.20
2022-12-09T15:51:38.157Z,84.45
2022-12-09T15:54:12.109Z,79.38
2022-12-09T15:56:45.539Z,86.35
2022-12-09T15:59:19.478Z,84.93
2022-12-09T16:01:54.133Z,82.68
2022-12-09T16:04:27.276Z,74.15
2022-12-09T16:06:57.186Z,82.45
2022-12-09T16:09:25.733Z,83.43
2022-12-09T16:11:56.327Z,85.35
2022-12-09T16:14:25.996Z,81.28
2022-12-09T16:17:02.570Z,80.35
2022-12-09T16:19:38.352Z,87.63
2022-12-09T16:22:10.947Z,86.22
2022-12-09T16:27:39.546Z,82.45
2022-12-09T16:30:19.960Z,93.30
2022-12-09T16:33:10.145Z,91.95
2022-12-09T16:35:43.042Z,92.75
2022-12-09T16:38:20.961Z,97.13
2022-12-09T16:41:23.137Z,88.68
2022-12-09T16:43:58.855Z,97.65
2022-12-09T16:46:43.964Z,96.57
2022-12-09T16:49:15.738Z,97.85
2022-12-09T16:51:45.450Z,97.18
2022-12-09T16:54:20.458Z,102.07
2022-12-09T16:56:53.682Z,98.20
2022-12-09T16:59:22.742Z,97.45
2022-12-09T17:01:53.577Z,112.40
2022-12-09T17:04:30.120Z,108.30
2022-12-09T17:06:59.576Z,110.30
2022-12-09T17:09:28.371Z,120.53
2022-12-09T17:12:00.883Z,118.18
2022-12-09T17:14:32.813Z,117.00
2022-12-09T17:17:02.878Z,121.43
2022-12-09T17:19:33.307Z,120.28
2022-12-09T17:22:01.753Z,121.72
2022-12-09T17:24:30.543Z,130.45
2022-12-09T17:26:59.562Z,133.45
2022-12-09T17:29:28.942Z,129.20
2022-12-09T17:31:57.743Z,155.27
2022-12-09T17:34:28.776Z,132.85
2022-12-09T17:36:59.290Z,139.40
2022-12-09T17:39:30.349Z,145.52
2022-12-09T17:41:58.836Z,155.68
2022-12-09T17:47:11.382Z,156.55
2022-12-09T17:49:40.333Z,152.85
2022-12-09T17:52:11.672Z,162.52
2022-12-09T17:54:41.082Z,161.75
2022-12-09T17:59:59.958Z,174.05
2022-12-09T18:02:29.920Z,167.57
2022-12-09T18:04:58.788Z,176.93
2022-12-09T18:07:31.081Z,160.82
2022-12-09T18:10:02.289Z,173.80
2022-12-09T18:12:31.163Z,183.52
2022-12-09T18:15:14.248Z,170.45
2022-12-09T18:23:10.168Z,164.88
2022-12-09T18:25:42.304Z,182.00
2022-12-09T18:28:10.799Z,173.35
2022-12-09T18:30:40.657Z,174.98
2022-12-09T18:33:11.318Z,171.50
2022-12-09T18:35:42.703Z,182.55
2022-12-09T18:38:13.055Z,163.82
2022-12-09T18:41:01.035Z,188.50
2022-12-09T18:43:30.639Z,186.98
2022-12-09T18:46:04.067Z,182.15
2022-12-09T18:48:34.470Z,179.50
2022-12-09T18:51:02.858Z,176.27
2022-12-09T18:53:33.108Z,171.38
2022-12-09T18:56:06.517Z,166.40
2022-12-09T18:59:04.685Z,169.30
2022-12-09T19:01:30.713Z,176.93
2022-12-09T19:04:06.367Z,160.00
2022-12-09T19:06:39.306Z,162.27
2022-12-09T19:09:14.539Z,171.52
2022-12-09T19:11:44.763Z,174.40
2022-12-09T19:14:15.285Z,176.88
2022-12-09T19:16:45.670Z,166.48
2022-12-09T19:19:18.401Z,168.75
2022-12-09T19:21:48.081Z,166.27
2022-12-09T19:24:21.483Z,168.50
2022-12-09T19:26:53.344Z,185.75
2022-12-09T19:29:24.702Z,182.02
2022-12-09T19:31:54.645Z,173.63
2022-12-09T19:34:26.867Z,188.77
2022-12-09T19:36:58.755Z,177.75
2022-12-09T19:39:48.361Z,179.43
2022-12-09T19:42:19.380Z,174.60
2022-12-09T19:45:12.064Z,180.65
2022-12-09T19:47:40.379Z,178.23
2022-12-09T19:50:12.949Z,189.10
2022-12-09T19:52:42.971Z,182.05
2022-12-09T19:55:16.379Z,183.77
2022-12-09T19:58:06.004Z,176.98
2022-12-09T20:00:41.193Z,184.70
2022-12-09T20:03:12.343Z,177.55
2022-12-09T20:05:52.690Z,194.15
2022-12-09T20:08:23.595Z,185.18
2022-12-09T20:10:55.991Z,171.70
2022-12-09T20:13:31.831Z,189.65
2022-12-09T20:18:57.907Z,201.55
2022-12-09T20:21:28.006Z,181.98
2022-12-09T20:23:58.956Z,187.32
2022-12-09T20:26:35.188Z,197.32
2022-12-09T20:29:11.975Z,194.55
2022-12-09T20:31:43.523Z,193.57
2022-12-09T20:34:19.882Z,197.10
2022-12-09T20:36:49.538Z,201.45
2022-12-09T20:39:22.883Z,188.88
2022-12-09T20:41:54.908Z,190.25
2022-12-09T20:44:26.224Z,188.70
2022-12-09T20:46:57.980Z,196.35
2022-12-09T20:49:28.302Z,193.02
2022-12-09T20:51:58.012Z,197.55
2022-12-09T20:54:28.219Z,193.13
2022-12-09T20:57:00.194Z,192.27
2022-12-09T20:59:29.480Z,193.65
2022-12-09T21:01:58.811Z,191.25
2022-12-09T21:04:28.342Z,189.93
2022-12-09T21:06:58.171Z,185.25
2022-12-09T21:09:29.776Z,191.52
2022-12-09T21:12:00.429Z,182.13
2022-12-09T21:14:33.155Z,174.30
2022-12-09T21:17:03.271Z,167.10
2022-12-09T21:19:32.696Z,182.45
2022-12-09T21:22:04.373Z,178.10
2022-12-09T21:24:33.949Z,177.70
2022-12-09T21:27:05.065Z,174.88
2022-12-09T21:29:33.535Z,170.15
2022-12-09T21:32:05.723Z,189.85
2022-12-09T21:34:34.640Z,191.45
2022-12-09T21:37:03.499Z,185.00
2022-12-09T21:39:33.273Z,182.75
2022-12-09T21:42:03.356Z,184.20
2022-12-09T21:44:34.015Z,188.40
2022-12-09T21:47:04.475Z,172.25
2022-12-09T21:49:36.407Z,196.07
2022-12-09T21:52:07.109Z,180.70
2022-12-09T21:54:35.830Z,196.38
2022-12-09T21:57:08.432Z,193.93
2022-12-09T21:59:37.060Z,180.25
2022-12-09T22:02:05.925Z,191.77
2022-12-09T22:04:35.016Z,195.07
2022-12-09T22:07:05.073Z,177.32
2022-12-09T22:09:35.854Z,195.00
2022-12-09T22:12:08.049Z,189.18
2022-12-09T22:17:34.214Z,183.70
2022-12-09T22:20:48.847Z,181.55
2022-12-09T22:22:54.985Z,189.75
2022-12-09T22:25:24.082Z,195.80
2022-12-09T22:27:55.632Z,195.02
2022-12-09T22:30:24.690Z,200.88
2022-12-09T22:32:53.150Z,217.45
2022-12-09T22:35:21.987Z,216.65
2022-12-09T22:37:50.897Z,230.85
2022-12-09T22:40:20.452Z,218.10
2022-12-09T22:42:50.495Z,219.00
2022-12-09T22:45:20.822Z,222.55
2022-12-09T22:47:49.918Z,223.90
2022-12-09T22:50:21.911Z,227.98
2022-12-09T22:52:51.041Z,215.95
2022-12-09T22:55:21.200Z,217.50
2022-12-09T22:57:56.657Z,220.27
2022-12-09T23:00:26.616Z,223.20
2022-12-09T23:02:55.354Z,210.55
2022-12-09T23:05:23.752Z,203.02
2022-12-09T23:07:52.896Z,219.82
2022-12-09T23:10:21.421Z,213.15
2022-12-09T23:12:50.764Z,220.13
2022-12-09T23:15:19.184Z,222.20
2022-12-09T23:17:49.314Z,213.57
2022-12-09T23:20:18.046Z,207.02
2022-12-09T23:22:47.831Z,215.07
2022-12-09T23:25:19.471Z,203.88
2022-12-09T23:27:50.435Z,197.80
2022-12-09T23:30:19.263Z,202.40
2022-12-09T23:32:49.353Z,194.52
2022-12-09T23:35:18.276Z,194.98
2022-12-09T23:37:47.285Z,205.63
2022-12-09T23:40:16.061Z,203.40
2022-12-09T23:42:48.327Z,197.23
2022-12-09T23:45:17.692Z,200.40
2022-12-09T23:47:48.728Z,200.80
2022-12-09T23:50:17.643Z,216.48
2022-12-09T23:52:49.059Z,199.35
2022-12-09T23:55:17.924Z,198.00
2022-12-09T23:57:52.215Z,194.82
